Time;durP1;ratioP1;P1;durP2;ratioP2;P2;SDS_P1;SDS_P2;PMS_P1;PMS_P2;Temp;Humidity;BMP_temperature;BMP_pressure;BME280_temperature;BME280_humidity;BME280_pressure;Samples;Min_cycle;Max_cycle;Signal;HPM_P1;HPM_P2
2023/01/15 00:00:04;;;;;;;14.38;9.60;;;;;;;6.61;96.91;99772.97;5092304;28;20027;-50
2023/01/15 00:02:30;;;;;;;17.77;9.43;;;;;;;6.60;96.71;99771.34;5092096;28;20028;-51
2023/01/15 00:04:55;;;;;;;14.63;9.40;;;;;;;6.60;96.51;99785.09;5084723;28;20039;-51
2023/01/15 00:07:21;;;;;;;17.08;9.60;;;;;;;6.58;95.56;99770.00;5093456;28;20032;-50
2023/01/15 00:09:46;;;;;;;17.95;9.35;;;;;;;6.61;93.89;99774.91;5094003;28;20106;-51
2023/01/15 00:12:11;;;;;;;20.40;9.70;;;;;;;6.67;92.39;99779.97;5093683;28;20039;-48
2023/01/15 00:14:37;;;;;;;17.80;9.65;;;;;;;6.68;91.33;99783.53;5093341;28;20085;-50
2023/01/15 00:17:02;;;;;;;18.25;9.70;;;;;;;6.59;91.46;99780.69;5093677;28;20028;-50
2023/01/15 00:19:27;;;;;;;18.58;9.50;;;;;;;6.64;90.27;99783.34;5093440;28;20028;-47
2023/01/15 00:21:53;;;;;;;17.45;9.20;;;;;;;6.59;90.75;99788.13;5093553;28;20034;-47
2023/01/15 00:29:46;;;;;;;19.58;9.60;;;;;;;6.46;90.90;99771.34;5092905;28;20046;-47
2023/01/15 00:32:11;;;;;;;16.00;9.43;;;;;;;6.51;90.54;99770.44;5092778;28;20384;-47
2023/01/15 00:34:37;;;;;;;16.50;9.25;;;;;;;6.48;90.26;99776.53;5093104;28;20376;-47
2023/01/15 00:37:02;;;;;;;15.95;9.30;;;;;;;6.43;91.79;99768.38;5093306;28;20024;-47
2023/01/15 00:39:28;;;;;;;19.73;9.82;;;;;;;6.39;92.81;99773.66;5093186;28;20426;-47
2023/01/15 00:41:54;;;;;;;18.65;9.50;;;;;;;6.36;93.40;99771.53;5092751;28;20042;-47
2023/01/15 00:44:21;;;;;;;19.30;9.50;;;;;;;6.35;93.16;99770.72;5092996;28;20066;-50
2023/01/15 00:46:46;;;;;;;17.83;9.75;;;;;;;6.34;93.80;99790.25;5093339;28;20036;-50
2023/01/15 00:49:12;;;;;;;20.80;9.95;;;;;;;6.29;94.69;99782.91;5093126;28;20027;-49
2023/01/15 00:51:37;;;;;;;15.98;9.65;;;;;;;6.27;95.27;99792.59;5093106;28;20024;-47
2023/01/15 00:54:04;;;;;;;17.48;10.10;;;;;;;6.28;95.67;99795.03;5092972;28;20063;-48
2023/01/15 00:56:29;;;;;;;19.52;10.75;;;;;;;6.28;95.71;99783.22;5093109;28;20074;-49
2023/01/15 00:58:55;;;;;;;15.45;9.88;;;;;;;6.23;96.57;99787.69;5092878;28;20036;-49
2023/01/15 01:01:20;;;;;;;18.75;10.75;;;;;;;6.25;97.12;99806.59;5089186;28;20515;-50
2023/01/15 01:03:51;;;;;;;19.23;10.20;;;;;;;6.24;97.04;99786.56;5092674;28;20036;-49
2023/01/15 01:06:18;;;;;;;20.23;10.82;;;;;;;6.23;96.49;99798.69;5093022;28;20066;-48
2023/01/15 01:08:44;;;;;;;22.30;10.73;;;;;;;6.18;96.57;99793.28;5092864;28;20050;-50
2023/01/15 01:11:12;;;;;;;18.38;10.20;;;;;;;6.17;97.59;99807.31;5093060;28;20555;-49
2023/01/15 01:13:38;;;;;;;18.63;10.32;;;;;;;6.13;97.63;99796.13;5091385;28;20024;-48
2023/01/15 01:16:19;;;;;;;19.58;10.20;;;;;;;6.14;96.90;99789.50;5092850;28;20032;-49
2023/01/15 01:18:45;;;;;;;19.02;10.20;;;;;;;6.15;96.40;99796.63;5093003;28;20063;-47
2023/01/15 01:21:10;;;;;;;18.05;10.60;;;;;;;6.15;96.14;99798.53;5092601;28;20127;-47
2023/01/15 01:23:35;;;;;;;19.08;10.48;;;;;;;6.07;96.73;99794.59;5092538;28;20209;-48
2023/01/15 01:26:01;;;;;;;18.60;10.15;;;;;;;6.00;97.24;99791.41;5092620;28;20064;-48
2023/01/15 01:28:26;;;;;;;17.17;10.10;;;;;;;6.03;96.69;99799.03;5092202;28;20016;-47
2023/01/15 01:30:51;;;;;;;18.38;10.20;;;;;;;5.99;96.51;99796.09;5092282;28;20063;-51
2023/01/15 01:33:16;;;;;;;20.48;10.05;;;;;;;6.02;96.26;99786.41;5092080;28;20093;-50
2023/01/15 01:35:48;;;;;;;17.75;9.68;;;;;;;5.95;96.79;99786.81;5090632;28;20062;-47
2023/01/15 01:38:13;;;;;;;17.85;9.65;;;;;;;5.93;96.96;99787.09;5091633;28;20873;-48
2023/01/15 01:40:40;;;;;;;19.83;9.70;;;;;;;6.04;95.63;99792.44;5092131;28;20039;-48
2023/01/15 01:43:24;;;;;;;17.85;9.60;;;;;;;6.00;96.14;99799.66;5092192;28;20062;-52
2023/01/15 01:45:49;;;;;;;;;;;;;;;6.09;96.33;99803.34;5092542;28;20039;-50
2023/01/15 01:48:18;;;;;;;16.88;9.70;;;;;;;5.99;94.96;99795.25;5091652;28;19908;-46
2023/01/15 01:50:46;;;;;;;18.27;10.55;;;;;;;6.00;94.99;99802.41;5091407;28;20120;-49
2023/01/15 01:53:19;;;;;;;19.42;10.27;;;;;;;5.97;95.16;99798.28;5091752;28;20485;-49
2023/01/15 01:55:45;;;;;;;;;;;;;;;6.06;95.51;99791.00;5089768;28;20024;-49
2023/01/15 01:58:12;;;;;;;23.00;11.13;;;;;;;6.01;94.63;99795.78;5086004;28;20341;-51
2023/01/15 02:00:41;;;;;;;16.92;9.80;;;;;;;5.93;95.01;99792.56;5091032;28;20028;-51
2023/01/15 02:03:07;;;;;;;19.77;10.40;;;;;;;5.89;95.80;99802.53;5091268;28;20456;-49
2023/01/15 02:05:38;;;;;;;17.38;10.02;;;;;;;5.88;95.36;99789.09;5091581;28;20400;-51
2023/01/15 02:08:05;;;;;;;19.58;10.30;;;;;;;5.89;95.51;99798.97;5091701;28;20023;-48
2023/01/15 02:10:30;;;;;;;18.90;10.18;;;;;;;5.85;95.67;99801.50;5091415;28;20032;-49
2023/01/15 02:13:07;;;;;;;17.05;9.80;;;;;;;5.88;95.24;99800.06;5091144;28;20130;-46
2023/01/15 02:15:39;;;;;;;18.20;9.75;;;;;;;5.85;95.35;99801.50;5089399;28;20462;-46
2023/01/15 02:18:15;;;;;;;16.30;9.70;;;;;;;5.92;93.96;99801.13;5091346;28;20024;-50
2023/01/15 02:20:46;;;;;;;17.60;10.20;;;;;;;5.87;94.59;99793.78;5091360;28;20076;-51
2023/01/15 02:23:27;;;;;;;17.23;9.73;;;;;;;5.93;94.32;99792.56;5091219;28;20525;-51
2023/01/15 02:26:20;;;;;;;17.38;9.70;;;;;;;5.87;94.54;99793.78;5091214;28;20036;-47
2023/01/15 02:28:49;;;;;;;22.00;10.10;;;;;;;5.85;94.04;99781.50;5091552;28;20031;-51
2023/01/15 02:31:42;;;;;;;18.17;10.05;;;;;;;5.83;95.57;99789.19;5090113;28;20024;-50
2023/01/15 02:34:25;;;;;;;19.55;10.30;;;;;;;5.78;95.55;99796.38;5087855;28;20052;-46
2023/01/15 02:37:00;;;;;;;18.70;9.93;;;;;;;5.82;94.61;99784.81;5091239;28;20035;-47
2023/01/15 02:39:28;;;;;;;17.58;9.85;;;;;;;5.68;95.53;99776.53;5090958;28;20111;-48
2023/01/15 02:41:59;;;;;;;19.92;9.63;;;;;;;5.68;95.36;99768.31;5090427;28;20052;-46
2023/01/15 02:44:28;;;;;;;18.63;10.18;;;;;;;5.61;95.57;99766.78;5090449;28;20127;-47
2023/01/15 02:46:54;;;;;;;21.98;10.43;;;;;;;5.62;95.61;99768.38;5090767;28;20032;-48
2023/01/15 02:49:21;;;;;;;17.10;10.00;;;;;;;5.61;95.30;99772.25;5090791;28;20052;-47
2023/01/15 02:52:28;;;;;;;21.50;10.90;;;;;;;5.56;96.78;99761.34;5090773;28;20436;-51
2023/01/15 02:55:02;;;;;;;19.70;10.25;;;;;;;5.45;96.64;99746.16;5050665;28;20152;-48
2023/01/15 02:57:33;;;;;;;18.23;10.23;;;;;;;5.48;96.76;99775.75;5089505;28;20035;-48
2023/01/15 03:00:04;;;;;;;16.70;10.10;;;;;;;5.59;95.73;99770.91;5083358;28;20349;-50
2023/01/15 03:02:34;;;;;;;19.20;10.60;;;;;;;5.52;96.48;99771.31;5090982;28;20040;-47
2023/01/15 03:05:06;;;;;;;19.38;10.30;;;;;;;5.47;96.49;99776.88;5090753;28;20379;-46
2023/01/15 03:07:41;;;;;;;21.75;10.15;;;;;;;5.53;95.37;99772.13;5090861;28;20119;-52
2023/01/15 03:10:08;;;;;;;17.10;10.27;;;;;;;5.55;95.13;99772.63;5090875;28;20103;-46
2023/01/15 03:13:04;;;;;;;17.92;10.00;;;;;;;5.59;95.55;99779.97;5090707;28;20028;-47
2023/01/15 03:18:47;;;;;;;19.35;10.23;;;;;;;5.68;94.18;99784.78;5089815;28;20131;-50
2023/01/15 03:21:30;;;;;;;18.55;10.52;;;;;;;5.50;94.30;99779.03;5090898;28;20093;-48
2023/01/15 03:24:00;;;;;;;18.52;10.30;;;;;;;5.47;95.43;99785.09;5090713;28;20032;-48
2023/01/15 03:26:27;;;;;;;16.40;9.77;;;;;;;5.46;95.60;99769.75;5090713;28;20507;-46
2023/01/15 03:28:53;;;;;;;19.08;9.80;;;;;;;5.42;95.10;99769.53;5094757;28;20035;-47
2023/01/15 03:31:18;;;;;;;18.92;10.00;;;;;;;5.38;95.53;99762.19;5094880;28;20028;-47
2023/01/15 03:33:44;;;;;;;15.82;10.00;;;;;;;5.37;95.65;99774.28;5094945;28;20093;-48
2023/01/15 03:36:09;;;;;;;18.25;10.30;;;;;;;5.40;94.90;99766.25;5094481;28;20032;-48
2023/01/15 03:38:37;;;;;;;22.60;10.20;;;;;;;5.40;94.98;99754.50;5094612;28;20028;-51
2023/01/15 03:41:36;;;;;;;20.38;10.55;;;;;;;5.42;95.37;99757.75;5094152;28;20115;-51
2023/01/15 03:44:09;;;;;;;19.77;10.30;;;;;;;5.45;94.40;99765.38;5094301;28;20032;-49
2023/01/15 03:47:12;;;;;;;16.27;10.00;;;;;;;5.41;94.53;99756.94;5094735;28;20040;-47
2023/01/15 03:49:41;;;;;;;20.70;10.57;;;;;;;5.33;94.49;99774.06;5091117;28;20040;-47
2023/01/15 03:52:29;;;;;;;17.13;10.20;;;;;;;5.46;94.16;99765.09;5093049;28;20024;-49
2023/01/15 03:55:13;;;;;;;16.25;9.80;;;;;;;5.38;93.36;99763.03;5094752;28;20048;-47
2023/01/15 03:57:44;;;;;;;19.35;10.73;;;;;;;5.32;94.40;99747.75;5094694;28;20043;-47
2023/01/15 04:00:34;;;;;;;18.13;10.20;;;;;;;5.36;93.94;99751.53;5089631;28;20085;-50
2023/01/15 04:03:02;;;;;;;20.98;9.95;;;;;;;5.32;93.53;99755.97;5093126;28;20464;-46
2023/01/15 04:05:30;;;;;;;17.63;9.90;;;;;;;5.34;93.09;99744.72;5093318;28;20032;-50
2023/01/15 04:07:57;;;;;;;19.35;10.13;;;;;;;5.29;93.81;99751.91;5094132;28;20028;-49
2023/01/15 04:10:23;;;;;;;19.13;10.10;;;;;;;5.40;92.21;99744.31;5094407;28;20050;-50
2023/01/15 04:12:48;;;;;;;20.85;11.38;;;;;;;5.29;93.18;99751.09;5094292;28;20054;-48
2023/01/15 04:15:14;;;;;;;20.23;10.30;;;;;;;5.25;93.69;99750.84;5094003;28;20471;-48
2023/01/15 04:17:40;;;;;;;19.27;10.30;;;;;;;5.28;92.96;99757.69;5094055;28;20089;-47
2023/01/15 04:20:06;;;;;;;18.35;10.10;;;;;;;5.33;92.03;99749.38;5093746;28;20032;-51
2023/01/15 04:22:32;;;;;;;20.63;10.13;;;;;;;5.27;92.43;99745.09;5093918;28;20039;-46
2023/01/15 04:24:57;;;;;;;17.90;10.02;;;;;;;5.27;92.17;99748.63;5093926;28;20024;-48
2023/01/15 04:27:22;;;;;;;20.20;10.32;;;;;;;5.28;92.02;99746.72;5093862;28;20557;-49
2023/01/15 04:29:48;;;;;;;18.27;9.93;;;;;;;5.33;91.51;99749.38;5093535;28;20038;-50
2023/01/15 04:32:14;;;;;;;18.65;9.55;;;;;;;5.25;91.63;99744.56;5093674;28;20031;-50
2023/01/15 04:34:39;;;;;;;18.02;9.85;;;;;;;5.25;91.50;99741.81;5093870;28;20051;-51
2023/01/15 04:37:04;;;;;;;16.85;9.80;;;;;;;5.21;91.92;99743.53;5093743;28;20047;-48
2023/01/15 04:39:30;;;;;;;19.92;9.73;;;;;;;5.16;91.98;99749.91;5092726;28;20028;-48
2023/01/15 04:44:39;;;;;;;17.75;9.90;;;;;;;5.15;92.22;99751.00;5093732;28;20120;-51
2023/01/15 04:47:05;;;;;;;18.25;9.70;;;;;;;5.13;92.37;99756.00;5093423;28;20055;-47
2023/01/15 04:49:31;;;;;;;19.98;9.85;;;;;;;5.15;91.26;99761.97;5093243;28;20034;-49
2023/01/15 04:51:56;;;;;;;19.02;9.57;;;;;;;5.11;92.31;99771.91;5092993;28;20161;-48
2023/01/15 04:54:21;;;;;;;16.92;9.40;;;;;;;5.19;91.56;99767.69;5092988;28;20134;-49
2023/01/15 04:56:49;;;;;;;18.02;9.82;;;;;;;5.18;91.73;99772.34;5093220;28;20027;-48
2023/01/15 04:59:16;;;;;;;16.58;9.30;;;;;;;5.10;92.44;99773.03;5092830;28;20020;-47
2023/01/15 05:01:42;;;;;;;16.73;9.38;;;;;;;5.15;91.55;99770.19;5093102;28;20028;-49
2023/01/15 05:04:07;;;;;;;20.55;9.85;;;;;;;5.08;93.30;99772.50;5093091;28;20431;-47
2023/01/15 05:06:33;;;;;;;21.40;9.75;;;;;;;5.10;92.66;99767.53;5093394;28;20459;-47
2023/01/15 05:08:59;;;;;;;19.60;9.90;;;;;;;5.02;93.75;99766.25;5091923;28;20103;-47
2023/01/15 05:11:25;;;;;;;19.35;10.00;;;;;;;4.96;93.75;99773.75;5093178;28;20089;-47
2023/01/15 05:13:51;;;;;;;20.52;9.95;;;;;;;5.07;92.89;99777.19;5088805;28;20024;-49
2023/01/15 05:16:25;;;;;;;19.20;10.13;;;;;;;5.00;93.58;99774.00;5093017;28;20115;-48
2023/01/15 05:18:53;;;;;;;20.73;10.23;;;;;;;4.95;93.54;99772.13;5093235;28;20078;-47
2023/01/15 05:21:24;;;;;;;16.27;10.27;;;;;;;5.00;94.15;99771.25;5092988;28;20020;-48
2023/01/15 05:23:51;;;;;;;18.40;10.00;;;;;;;5.08;93.11;99769.75;5091513;28;20055;-47
2023/01/15 05:26:17;;;;;;;20.35;10.10;;;;;;;5.06;93.37;99775.53;5092789;28;20077;-51
2023/01/15 05:28:43;;;;;;;18.65;10.10;;;;;;;5.08;93.35;99761.53;5092708;28;20035;-49
2023/01/15 05:31:11;;;;;;;19.17;9.85;;;;;;;5.11;91.69;99761.75;5092632;28;20036;-50
2023/01/15 05:33:37;;;;;;;18.15;10.00;;;;;;;5.15;91.38;99761.97;5092868;28;20035;-50
2023/01/15 05:36:11;;;;;;;16.42;9.40;;;;;;;5.13;92.27;99756.00;5092761;28;20059;-49
2023/01/15 05:38:37;;;;;;;17.90;9.85;;;;;;;5.09;91.49;99750.28;5092682;28;20020;-51
2023/01/15 05:41:47;;;;;;;17.08;10.05;;;;;;;5.08;90.98;99745.91;5092645;28;20605;-48
2023/01/15 05:43:49;;;;;;;17.42;9.52;;;;;;;5.00;91.72;99743.84;5092328;28;20036;-49
2023/01/15 05:46:15;;;;;;;16.88;9.57;;;;;;;5.03;91.19;99751.44;5092450;28;20106;-46
2023/01/15 05:48:40;;;;;;;17.13;9.80;;;;;;;5.00;91.93;99754.81;5092449;28;20134;-47
2023/01/15 05:51:05;;;;;;;20.50;10.05;;;;;;;5.05;90.88;99751.97;5090991;28;20443;-48
2023/01/15 05:53:33;;;;;;;19.52;10.10;;;;;;;5.04;91.21;99760.50;5091381;28;20044;-49
2023/01/15 05:56:00;;;;;;;17.02;9.55;;;;;;;4.95;91.39;99743.91;5091568;28;20024;-46
2023/01/15 05:58:26;;;;;;;17.85;10.00;;;;;;;4.95;92.54;99769.41;5091718;28;20020;-48
2023/01/15 06:00:51;;;;;;;18.33;9.73;;;;;;;4.93;91.85;99763.38;5091809;28;20040;-47
2023/01/15 06:03:16;;;;;;;18.15;10.07;;;;;;;4.92;92.34;99760.91;5091627;28;20383;-49
2023/01/15 06:05:41;;;;;;;20.52;9.75;;;;;;;4.93;92.11;99748.84;5091664;28;20111;-47
2023/01/15 06:08:07;;;;;;;20.80;10.43;;;;;;;4.88;94.35;99751.69;5091644;28;20149;-50
2023/01/15 06:10:32;;;;;;;19.23;9.65;;;;;;;4.86;93.40;99760.19;5091658;28;20475;-48
2023/01/15 06:12:57;;;;;;;17.33;9.88;;;;;;;4.97;93.67;99760.88;5082367;28;20123;-51
2023/01/15 06:15:23;;;;;;;18.92;9.73;;;;;;;4.98;94.89;99768.78;5090923;28;20020;-47
2023/01/15 06:17:49;;;;;;;20.33;10.00;;;;;;;4.94;97.10;99762.28;5091270;28;20498;-50
2023/01/15 06:20:15;;;;;;;17.80;9.85;;;;;;;5.02;94.25;99760.78;5091375;28;20020;-49
2023/01/15 06:22:40;;;;;;;21.88;11.35;;;;;;;4.88;96.60;99763.44;5090939;28;20496;-53
2023/01/15 06:25:06;;;;;;;19.33;10.98;;;;;;;4.90;97.52;99776.88;5091183;28;20036;-51
2023/01/15 06:27:31;;;;;;;19.10;10.23;;;;;;;4.90;98.53;99779.59;5092053;28;20133;-47
2023/01/15 06:29:57;;;;;;;20.65;11.73;;;;;;;4.93;98.65;99784.47;5091618;28;20032;-49
2023/01/15 06:32:24;;;;;;;20.70;11.32;;;;;;;4.96;98.85;99772.94;5091408;28;20506;-46
2023/01/15 06:34:49;;;;;;;20.10;10.50;;;;;;;4.95;98.16;99779.53;5091209;28;20486;-48
2023/01/15 06:37:14;;;;;;;18.27;10.60;;;;;;;4.93;98.28;99777.09;5090209;28;20020;-48
2023/01/15 06:39:40;;;;;;;17.05;10.57;;;;;;;4.93;98.21;99787.22;5090229;28;20024;-47
2023/01/15 06:47:33;;;;;;;;;;;;;;;4.94;97.08;99797.06;5090489;28;20147;-51
2023/01/15 06:49:58;;;;;;;19.05;10.07;;;;;;;4.87;96.58;99780.19;5089759;28;20002;-49
2023/01/15 06:52:25;;;;;;;17.13;9.80;;;;;;;4.83;97.46;99778.03;5089595;28;20082;-48
2023/01/15 06:54:51;;;;;;;22.42;10.88;;;;;;;4.74;97.80;99779.78;5080968;28;20127;-49
2023/01/15 06:57:17;;;;;;;22.10;9.98;;;;;;;4.77;96.57;99776.47;5079522;28;20444;-49
2023/01/15 06:59:43;;;;;;;19.63;10.25;;;;;;;4.68;96.94;99789.19;5069983;28;20045;-51
2023/01/15 07:02:10;;;;;;;18.98;9.98;;;;;;;4.61;97.38;99786.78;5068816;28;20036;-48
2023/01/15 07:04:35;;;;;;;18.25;9.73;;;;;;;4.57;97.63;99793.97;5069234;28;20021;-51
2023/01/15 07:07:00;;;;;;;21.13;10.57;;;;;;;4.56;97.21;99806.03;5069193;28;20020;-47
2023/01/15 07:09:26;;;;;;;23.50;11.40;;;;;;;4.53;97.84;99809.34;5061667;28;20052;-47
2023/01/15 07:11:51;;;;;;;21.23;10.52;;;;;;;4.56;97.16;99811.53;5085473;28;20036;-51
2023/01/15 07:14:22;;;;;;;18.23;10.02;;;;;;;4.62;96.41;99813.09;5089719;28;20367;-51
2023/01/15 07:16:48;;;;;;;21.02;10.88;;;;;;;4.53;96.47;99806.63;5089233;28;20129;-47
2023/01/15 07:19:14;;;;;;;18.10;10.73;;;;;;;4.53;96.15;99809.34;5087807;28;20044;-46
2023/01/15 07:21:39;;;;;;;20.80;10.52;;;;;;;4.49;95.86;99813.78;5087488;28;20036;-49
2023/01/15 07:24:05;;;;;;;20.25;10.52;;;;;;;4.52;96.25;99808.56;5089123;28;20052;-47
2023/01/15 07:26:30;;;;;;;21.98;10.00;;;;;;;4.72;94.69;99809.44;5087523;28;20056;-49
2023/01/15 07:28:56;;;;;;;18.13;9.77;;;;;;;4.62;95.34;99802.13;5089432;28;20093;-49
2023/01/15 07:31:21;;;;;;;18.90;9.90;;;;;;;4.67;94.99;99812.22;5089184;28;20063;-49
2023/01/15 07:33:46;;;;;;;20.92;10.55;;;;;;;4.59;95.60;99815.59;5088674;28;20031;-49
2023/01/15 07:36:11;;;;;;;17.52;10.00;;;;;;;4.62;94.01;99818.56;5088766;28;20427;-49
2023/01/15 07:38:37;;;;;;;20.27;10.00;;;;;;;4.65;94.62;99812.50;5089073;28;20036;-47
2023/01/15 07:51:57;;;;;;;;;;;;;;;4.61;94.66;99827.09;5089364;28;20050;-50
2023/01/15 07:54:24;;;;;;;22.27;10.10;;;;;;;4.52;94.15;99832.38;5088816;28;19915;-49
2023/01/15 07:56:51;;;;;;;18.15;9.60;;;;;;;4.51;94.58;99838.94;5088817;28;20320;-47
2023/01/15 07:59:17;;;;;;;16.58;9.07;;;;;;;4.46;94.19;99833.53;5088665;28;20498;-51
2023/01/15 08:01:42;;;;;;;15.70;9.75;;;;;;;4.46;94.49;99834.34;5088635;28;20280;-51
2023/01/15 08:04:08;;;;;;;16.70;9.48;;;;;;;4.46;94.63;99831.59;5081592;28;20064;-49
2023/01/15 08:06:34;;;;;;;15.23;8.98;;;;;;;4.42;94.46;99837.94;5088731;28;20472;-48
2023/01/15 08:08:59;;;;;;;16.90;9.10;;;;;;;4.38;95.12;99840.47;5088507;28;20085;-49
2023/01/15 08:16:53;;;;;;;21.05;9.73;;;;;;;4.35;94.37;99841.84;5092391;28;20039;-48
2023/01/15 08:19:18;;;;;;;15.43;9.27;;;;;;;4.42;93.66;99844.25;5091355;28;20031;-50
2023/01/15 08:21:43;;;;;;;17.40;9.38;;;;;;;4.49;93.44;99846.63;5091902;28;20024;-47
2023/01/15 08:24:09;;;;;;;15.68;9.73;;;;;;;4.38;94.02;99834.97;5091687;28;20101;-50
2023/01/15 08:26:34;;;;;;;15.75;9.10;;;;;;;4.34;93.81;99850.38;5091906;28;20040;-52
2023/01/15 08:29:00;;;;;;;17.90;9.15;;;;;;;4.30;93.94;99850.09;5091915;28;20519;-48
2023/01/15 08:31:25;;;;;;;19.83;9.57;;;;;;;4.27;93.86;99842.50;5091970;28;20499;-48
2023/01/15 08:33:50;;;;;;;18.60;9.65;;;;;;;4.33;93.42;99848.72;5091625;28;20388;-51
2023/01/15 08:36:17;;;;;;;17.15;8.60;;;;;;;4.42;92.52;99865.34;5091442;28;20397;-49
2023/01/15 08:38:42;;;;;;;18.67;8.65;;;;;;;4.37;91.77;99847.03;5092407;28;20468;-47
2023/01/15 08:41:08;;;;;;;12.73;8.52;;;;;;;4.46;91.05;99852.72;5093461;28;20031;-46
2023/01/15 08:43:33;;;;;;;17.17;8.80;;;;;;;4.43;91.52;99869.72;5092904;28;20031;-46
2023/01/15 08:46:00;;;;;;;15.55;8.68;;;;;;;4.48;91.75;99856.78;5092941;28;20138;-48
2023/01/15 08:48:27;;;;;;;19.10;9.30;;;;;;;4.41;91.65;99847.28;5092944;28;20032;-49
2023/01/15 08:50:52;;;;;;;16.23;8.88;;;;;;;4.50;90.96;99842.78;5092619;28;20044;-48
2023/01/15 08:53:18;;;;;;;18.70;8.68;;;;;;;4.43;92.03;99845.91;5092569;28;20059;-50
2023/01/15 08:55:45;;;;;;;15.85;8.70;;;;;;;4.41;91.95;99848.09;5092865;28;20016;-46
2023/01/15 08:58:11;;;;;;;14.73;8.27;;;;;;;4.46;91.10;99841.75;5079714;28;20035;-47
2023/01/15 09:00:36;;;;;;;19.08;9.00;;;;;;;4.48;91.42;99834.88;5090757;28;20028;-49
2023/01/15 09:03:02;;;;;;;16.60;8.23;;;;;;;4.53;91.15;99829.34;5091632;28;20491;-47
2023/01/15 09:05:27;;;;;;;16.70;8.60;;;;;;;4.46;92.03;99831.59;5092571;28;20222;-48
2023/01/15 09:07:53;;;;;;;15.73;8.80;;;;;;;4.50;91.81;99840.88;5092494;28;20073;-48
2023/01/15 09:10:19;;;;;;;15.50;8.60;;;;;;;4.43;92.14;99834.13;5092924;28;20129;-48
2023/01/15 09:12:44;;;;;;;18.25;9.13;;;;;;;4.52;91.44;99819.50;5092035;28;20140;-48
2023/01/15 09:15:09;;;;;;;15.80;8.60;;;;;;;4.58;91.53;99819.44;5072258;28;20085;-48
2023/01/15 09:17:39;;;;;;;18.02;8.88;;;;;;;4.53;92.18;99821.13;5088848;28;20043;-47
2023/01/15 09:20:09;;;;;;;16.38;8.98;;;;;;;4.53;93.07;99823.06;5089223;28;20031;-48
2023/01/15 09:22:35;;;;;;;13.70;8.60;;;;;;;4.59;92.12;99821.06;5090608;28;20372;-48
2023/01/15 09:25:00;;;;;;;16.42;8.40;;;;;;;4.68;92.29;99830.28;5090986;28;20020;-48
2023/01/15 09:27:27;;;;;;;16.38;8.40;;;;;;;4.80;90.28;99836.19;5091104;28;20039;-48
2023/01/15 09:29:52;;;;;;;17.77;8.82;;;;;;;4.79;90.92;99829.06;5090583;28;20063;-50
2023/01/15 09:32:18;;;;;;;16.65;8.40;;;;;;;4.82;90.66;99833.94;5090938;28;20092;-49
2023/01/15 09:34:43;;;;;;;16.80;8.82;;;;;;;4.86;90.96;99850.63;5090901;28;20035;-54
2023/01/15 09:37:09;;;;;;;20.13;9.13;;;;;;;4.96;90.23;99835.97;5090540;28;20605;-51
2023/01/15 09:39:35;;;;;;;15.95;8.30;;;;;;;4.97;90.61;99840.34;5091120;28;20035;-47
2023/01/15 09:42:29;;;;;;;19.90;8.75;;;;;;;5.08;91.55;99838.28;5090048;28;20035;-51
2023/01/15 09:45:15;;;;;;;16.70;8.10;;;;;;;5.19;90.80;99845.28;5090642;28;20059;-48
2023/01/15 09:48:07;;;;;;;16.42;8.43;;;;;;;5.18;90.16;99834.63;5072732;28;20047;-48
2023/01/15 09:50:47;;;;;;;17.88;8.30;;;;;;;5.23;89.67;99840.84;5087412;28;20364;-47
2023/01/15 09:53:21;;;;;;;14.38;8.23;;;;;;;5.20;89.35;99838.69;5090605;28;20135;-49
2023/01/15 09:55:52;;;;;;;14.85;8.45;;;;;;;5.16;89.01;99843.13;5082684;28;20043;-49
2023/01/15 09:58:20;;;;;;;18.92;8.88;;;;;;;5.02;89.81;99831.25;5090472;28;20403;-49
2023/01/15 10:00:49;;;;;;;20.35;9.43;;;;;;;5.05;89.87;99831.47;5090467;28;20028;-48
2023/01/15 10:03:41;;;;;;;17.40;8.70;;;;;;;5.16;89.83;99832.16;5091014;28;20028;-50
2023/01/15 10:06:21;;;;;;;16.63;8.90;;;;;;;5.32;88.18;99846.47;5090985;28;20030;-52
2023/01/15 10:08:49;;;;;;;15.95;8.52;;;;;;;5.25;88.19;99855.06;5090580;28;20078;-49
2023/01/15 10:11:14;;;;;;;19.02;8.85;;;;;;;5.41;88.64;99858.41;5088940;28;20032;-47
2023/01/15 10:13:45;;;;;;;17.85;8.38;;;;;;;5.53;86.63;99855.22;5090213;28;20367;-50
2023/01/15 10:16:17;;;;;;;19.58;8.45;;;;;;;5.53;86.48;99857.97;5088747;28;20028;-50
2023/01/15 10:18:42;;;;;;;17.90;8.18;;;;;;;5.69;85.44;99866.00;5090825;28;20113;-49
2023/01/15 10:21:21;;;;;;;18.73;9.35;;;;;;;5.59;85.07;99855.97;5090397;28;20066;-48
2023/01/15 10:24:38;;;;;;;11.88;8.70;;;;;;;5.73;85.64;99853.28;5090433;28;20032;-50
2023/01/15 10:27:21;;;;;;;15.25;8.23;;;;;;;5.70;85.92;99856.66;5077320;28;20449;-48
2023/01/15 10:30:02;;;;;;;18.23;8.40;;;;;;;5.67;85.01;99832.53;5088543;28;20036;-52
2023/01/15 10:32:32;;;;;;;16.92;8.32;;;;;;;5.70;84.49;99840.97;5090398;28;20490;-48
2023/01/15 10:35:13;;;;;;;15.75;8.50;;;;;;;5.75;84.35;99859.31;5090561;28;20034;-51
2023/01/15 10:38:06;;;;;;;18.85;8.43;;;;;;;5.76;85.06;99845.28;5089392;28;20491;-49
2023/01/15 10:40:53;;;;;;;15.10;8.70;;;;;;;5.89;84.84;99848.38;5088428;28;20024;-51
2023/01/15 10:43:37;;;;;;;16.90;8.48;;;;;;;5.91;83.71;99851.66;5090054;28;20176;-50
2023/01/15 10:46:11;;;;;;;15.07;8.18;;;;;;;5.92;84.37;99850.53;5089905;28;20066;-51
2023/01/15 10:48:50;;;;;;;19.25;8.73;;;;;;;5.98;85.02;99859.50;5087802;28;20030;-51
2023/01/15 10:51:23;;;;;;;15.80;8.35;;;;;;;6.13;84.02;99864.75;5084486;28;20028;-49
2023/01/15 10:53:57;;;;;;;17.52;8.50;;;;;;;6.20;83.43;99864.38;5089187;28;20423;-51
2023/01/15 10:56:51;;;;;;;19.70;8.90;;;;;;;6.23;84.24;99861.84;5089910;28;20064;-48
2023/01/15 10:59:55;;;;;;;15.88;8.20;;;;;;;6.35;83.92;99864.09;5089564;28;20131;-49
2023/01/15 11:02:38;;;;;;;14.85;8.27;;;;;;;6.39;82.43;99858.81;5064519;28;20040;-49
2023/01/15 11:05:05;;;;;;;18.38;9.05;;;;;;;6.28;82.96;99860.94;5088102;28;20433;-47
2023/01/15 11:07:39;;;;;;;14.15;8.98;;;;;;;6.39;82.27;99861.56;5088335;28;20024;-49
2023/01/15 11:10:09;;;;;;;16.20;9.35;;;;;;;6.42;83.57;99862.91;5089448;28;20506;-48
2023/01/15 11:21:01;;;;;;;13.10;8.45;;;;;;;6.59;80.35;99867.81;5089397;28;20667;-49
2023/01/15 11:23:27;;;;;;;16.38;8.80;;;;;;;6.63;79.75;99863.34;5089195;28;20111;-47
2023/01/15 11:25:59;;;;;;;15.80;9.18;;;;;;;6.60;80.02;99842.78;5089274;28;20099;-50
2023/01/15 11:28:35;;;;;;;16.55;8.68;;;;;;;6.63;80.35;99863.34;5089200;28;20032;-50
2023/01/15 11:31:01;;;;;;;18.80;9.07;;;;;;;6.53;80.54;99875.34;5087615;28;20023;-52
2023/01/15 11:33:28;;;;;;;15.55;8.45;;;;;;;6.53;80.22;99862.41;5089141;28;20103;-51
2023/01/15 11:35:59;;;;;;;16.02;9.10;;;;;;;6.30;83.19;99869.72;5088491;28;20097;-50
2023/01/15 11:38:45;;;;;;;16.27;8.77;;;;;;;6.17;83.40;99860.31;5085639;28;20045;-48
2023/01/15 11:52:25;;;;;;;;;;;;;;;6.27;82.65;99864.00;5093144;28;20223;-54
2023/01/15 11:54:53;;;;;;;17.65;8.60;;;;;;;6.15;81.99;99853.47;5092910;28;19915;-52
2023/01/15 11:57:29;;;;;;;17.23;8.90;;;;;;;6.17;83.79;99865.81;5093063;28;20036;-48
2023/01/15 11:59:54;;;;;;;16.67;8.98;;;;;;;6.23;82.64;99855.56;5093209;28;20111;-49
2023/01/15 12:02:49;;;;;;;15.70;8.50;;;;;;;6.17;82.32;99854.81;5093367;28;20110;-51
2023/01/15 12:05:25;;;;;;;18.10;9.00;;;;;;;6.20;82.63;99875.38;5092701;28;20036;-48
2023/01/15 12:07:57;;;;;;;18.38;9.68;;;;;;;6.11;84.67;99871.69;5092791;28;20024;-47
2023/01/15 12:13:55;;;;;;;16.98;9.20;;;;;;;6.20;88.16;99867.13;5092785;28;20047;-52
2023/01/15 12:16:45;;;;;;;18.50;9.75;;;;;;;6.27;86.88;99870.28;5092383;28;20058;-51
2023/01/15 12:19:37;;;;;;;20.83;11.77;;;;;;;6.33;85.45;99858.09;5092512;28;20447;-50
2023/01/15 12:22:22;;;;;;;14.20;9.02;;;;;;;6.24;85.03;99870.88;5092470;28;20056;-52
2023/01/15 12:24:59;;;;;;;14.63;8.88;;;;;;;6.20;84.79;99856.94;5091771;28;20032;-50
2023/01/15 12:27:42;;;;;;;12.55;8.73;;;;;;;6.20;84.80;99848.72;5092224;28;20031;-49
2023/01/15 12:30:33;;;;;;;13.18;9.07;;;;;;;6.15;85.37;99851.56;5092258;28;20051;-49
2023/01/15 12:33:15;;;;;;;12.65;8.90;;;;;;;6.06;86.22;99831.41;5082815;28;20549;-51
2023/01/15 12:35:47;;;;;;;13.88;8.63;;;;;;;6.04;85.97;99841.84;5090563;28;20152;-50
2023/01/15 12:38:20;;;;;;;14.57;8.93;;;;;;;6.00;85.63;99851.81;5092109;28;20040;-53
2023/01/15 12:40:55;;;;;;;14.63;8.63;;;;;;;6.18;83.38;99841.91;5084935;28;20028;-52